Time;durP1;ratioP1;P1;durP2;ratioP2;P2;SDS_P1;SDS_P2;PMS_P1;PMS_P2;Temp;Humidity;BMP_temperature;BMP_pressure;BME280_temperature;BME280_humidity;BME280_pressure;Samples;Min_cycle;Max_cycle;Signal;HPM_P1;HPM_P2
2022/10/31 00:01:29;;;;;;;106.97;54.28;;;10.80;99.90;;;;;;5052966;28;20025;-71
2022/10/31 00:03:55;;;;;;;149.52;58.72;;;10.90;99.90;;;;;;5052781;28;20037;-72
2022/10/31 00:06:22;;;;;;;301.95;84.72;;;10.90;99.90;;;;;;5053063;28;20024;-71
2022/10/31 00:08:53;;;;;;;225.05;71.60;;;10.80;99.90;;;;;;5021340;28;20037;-73
2022/10/31 00:11:19;;;;;;;312.85;89.82;;;10.70;99.90;;;;;;5036916;28;20034;-71
2022/10/31 00:13:45;;;;;;;224.50;75.80;;;10.70;99.90;;;;;;5014926;28;20076;-74
2022/10/31 00:16:19;;;;;;;142.82;64.35;;;10.80;99.90;;;;;;5011696;28;20479;-74
2022/10/31 00:18:58;;;;;;;238.18;72.95;;;10.80;99.90;;;;;;5019160;28;20034;-75
2022/10/31 00:21:25;;;;;;;108.47;57.55;;;10.80;99.90;;;;;;5011798;28;20073;-73
2022/10/31 00:23:51;;;;;;;94.28;53.92;;;10.90;99.90;;;;;;5011604;28;20100;-73
2022/10/31 00:26:18;;;;;;;92.32;56.10;;;11.00;99.90;;;;;;5011660;28;20523;-71
2022/10/31 00:28:44;;;;;;;101.60;55.50;;;11.10;99.90;;;;;;5011544;28;20088;-72
2022/10/31 00:31:10;;;;;;;94.47;53.45;;;11.20;99.90;;;;;;5013325;28;20033;-72
2022/10/31 00:33:38;;;;;;;194.05;72.22;;;11.20;99.90;;;;;;5013916;28;20092;-73
2022/10/31 00:36:05;;;;;;;128.55;57.60;;;11.20;99.90;;;;;;5011104;28;20109;-72
2022/10/31 00:38:32;;;;;;;108.88;53.63;;;11.30;99.90;;;;;;5014723;28;20084;-73
2022/10/31 00:40:58;;;;;;;315.80;93.72;;;11.40;99.90;;;;;;5034953;28;20037;-71
2022/10/31 00:43:24;;;;;;;109.00;55.00;;;11.20;99.90;;;;;;5045982;28;20044;-72
2022/10/31 00:45:49;;;;;;;141.95;65.88;;;11.20;99.90;;;;;;5051032;28;20108;-72
2022/10/31 00:48:15;;;;;;;400.80;104.63;;;11.20;99.90;;;;;;5050944;28;20478;-73
2022/10/31 00:50:42;;;;;;;151.88;66.53;;;11.10;99.90;;;;;;5050943;28;20463;-72
2022/10/31 00:53:08;;;;;;;175.55;77.75;;;11.30;99.90;;;;;;5050544;28;20044;-73
2022/10/31 00:55:34;;;;;;;392.35;108.53;;;11.20;99.90;;;;;;5049523;28;20025;-75
2022/10/31 00:58:00;;;;;;;402.98;108.68;;;11.20;99.90;;;;;;5052317;28;20082;-73
2022/10/31 01:00:26;;;;;;;299.83;82.75;;;11.00;99.90;;;;;;5052314;28;20029;-72
2022/10/31 01:02:52;;;;;;;151.95;61.95;;;11.10;99.90;;;;;;5050415;28;20032;-72
2022/10/31 01:05:17;;;;;;;142.88;65.43;;;11.10;99.90;;;;;;5050970;28;20063;-72
2022/10/31 01:07:45;;;;;;;205.95;65.55;;;11.20;99.90;;;;;;5050524;28;20032;-73
2022/10/31 01:10:11;;;;;;;166.65;63.13;;;11.20;99.90;;;;;;5050606;28;20025;-73
2022/10/31 01:12:38;;;;;;;161.63;61.95;;;11.20;99.90;;;;;;5046766;28;20397;-71
2022/10/31 01:15:04;;;;;;;232.77;70.65;;;11.20;99.90;;;;;;5050075;28;20041;-72
2022/10/31 01:17:30;;;;;;;189.13;65.60;;;11.20;99.90;;;;;;5049833;28;20120;-72
2022/10/31 01:19:56;;;;;;;137.50;53.85;;;11.20;99.90;;;;;;5050225;28;20076;-72
2022/10/31 01:22:22;;;;;;;98.68;50.90;;;11.10;99.90;;;;;;5051842;28;20133;-72
2022/10/31 01:24:49;;;;;;;311.58;77.60;;;11.10;99.90;;;;;;5051856;28;20020;-73
2022/10/31 01:27:15;;;;;;;189.23;57.92;;;11.10;99.90;;;;;;5052011;28;20054;-71
2022/10/31 01:29:41;;;;;;;112.32;52.80;;;11.00;99.90;;;;;;5050428;28;20025;-74
2022/10/31 01:32:07;;;;;;;148.15;54.05;;;11.00;99.90;;;;;;5051797;28;20095;-72
2022/10/31 01:34:33;;;;;;;445.25;112.30;;;11.00;99.90;;;;;;5038745;28;20430;-72
2022/10/31 01:37:01;;;;;;;151.27;55.50;;;10.70;99.90;;;;;;5042671;28;20120;-73
2022/10/31 01:39:27;;;;;;;238.95;68.25;;;10.80;99.90;;;;;;5044405;28;20122;-73
2022/10/31 01:41:54;;;;;;;263.45;66.45;;;10.80;99.90;;;;;;5050415;28;20072;-73
2022/10/31 01:44:19;;;;;;;265.25;76.22;;;10.70;99.90;;;;;;5051528;28;20036;-72
2022/10/31 01:46:56;;;;;;;545.08;135.40;;;10.70;99.90;;;;;;5043717;28;20026;-73
2022/10/31 01:49:42;;;;;;;585.00;152.07;;;10.60;99.90;;;;;;5038616;28;20028;-72
2022/10/31 01:52:25;;;;;;;135.23;64.68;;;10.60;99.90;;;;;;5028799;28;20025;-73
2022/10/31 01:55:01;;;;;;;191.35;63.00;;;10.70;99.90;;;;;;5055594;28;20494;-72
2022/10/31 01:57:28;;;;;;;269.02;78.22;;;10.70;99.90;;;;;;5054082;28;20031;-74
2022/10/31 01:59:59;;;;;;;123.15;54.00;;;10.60;99.90;;;;;;5054665;28;20470;-72
2022/10/31 02:02:27;;;;;;;152.00;56.67;;;10.80;99.90;;;;;;5029704;28;20383;-72
2022/10/31 02:04:54;;;;;;;252.07;75.60;;;10.70;99.90;;;;;;5053968;28;20021;-73
2022/10/31 02:07:28;;;;;;;83.38;49.03;;;10.80;99.90;;;;;;5055424;28;20032;-74
2022/10/31 02:09:59;;;;;;;126.50;50.67;;;10.90;99.90;;;;;;5053771;28;20025;-72
2022/10/31 02:12:25;;;;;;;87.03;48.88;;;11.00;99.90;;;;;;5055074;28;20044;-74
2022/10/31 02:14:56;;;;;;;111.82;50.28;;;11.00;99.90;;;;;;5053283;28;20064;-72
2022/10/31 02:17:21;;;;;;;443.42;103.45;;;11.10;99.90;;;;;;5053832;28;20067;-72
2022/10/31 02:20:00;;;;;;;142.98;53.53;;;10.80;99.90;;;;;;5055119;28;20029;-72
2022/10/31 02:22:49;;;;;;;161.88;57.35;;;10.80;99.90;;;;;;5053622;28;20036;-72
2022/10/31 02:25:33;;;;;;;130.27;48.05;;;10.80;99.90;;;;;;5053720;28;20036;-73
2022/10/31 02:28:05;;;;;;;226.52;60.63;;;10.90;99.90;;;;;;5030441;28;20052;-73
2022/10/31 02:30:45;;;;;;;135.55;52.80;;;10.90;99.90;;;;;;5039575;28;20084;-72
2022/10/31 02:33:25;;;;;;;118.75;52.10;;;10.90;99.90;;;;;;5051168;28;20070;-74
2022/10/31 02:36:09;;;;;;;98.40;48.53;;;11.00;99.90;;;;;;5052391;28;20533;-72
2022/10/31 02:38:52;;;;;;;242.50;64.15;;;11.00;99.90;;;;;;5026885;28;20507;-74
2022/10/31 02:41:42;;;;;;;102.30;52.33;;;10.90;99.90;;;;;;5050407;28;20045;-72
2022/10/31 02:44:18;;;;;;;278.95;79.32;;;10.90;99.90;;;;;;5043714;28;20031;-72
2022/10/31 02:46:55;;;;;;;198.07;64.70;;;10.80;99.90;;;;;;5039975;28;20517;-73
2022/10/31 02:49:37;;;;;;;151.38;61.03;;;10.70;99.90;;;;;;5045974;28;20032;-74
2022/10/31 02:52:33;;;;;;;188.50;64.30;;;10.70;99.90;;;;;;5052959;28;20025;-73
2022/10/31 02:55:23;;;;;;;137.75;60.70;;;10.70;99.90;;;;;;5053088;28;20082;-72
2022/10/31 02:57:51;;;;;;;185.48;66.80;;;10.90;99.90;;;;;;5044612;28;20048;-73
2022/10/31 03:00:17;;;;;;;116.85;56.92;;;10.80;99.90;;;;;;5040959;28;20021;-72
2022/10/31 03:03:14;;;;;;;318.77;84.93;;;10.80;99.90;;;;;;5049210;28;20501;-72
2022/10/31 03:05:54;;;;;;;124.60;55.60;;;10.70;99.90;;;;;;5052636;28;20090;-74
2022/10/31 03:08:27;;;;;;;185.07;64.80;;;10.80;99.90;;;;;;5048149;28;20037;-73
2022/10/31 03:11:02;;;;;;;117.35;53.78;;;10.80;99.90;;;;;;5041459;28;20025;-73
2022/10/31 03:13:34;;;;;;;233.45;89.88;;;10.80;99.90;;;;;;5047162;28;20060;-73
2022/10/31 03:16:07;;;;;;;152.65;84.95;;;10.90;99.90;;;;;;5052097;28;20483;-74
2022/10/31 03:18:40;;;;;;;136.82;72.72;;;10.90;99.90;;;;;;5052752;28;20060;-73
2022/10/31 03:21:10;;;;;;;99.68;59.90;;;11.00;99.90;;;;;;5039773;28;20396;-72
2022/10/31 03:23:37;;;;;;;92.00;50.55;;;11.00;99.90;;;;;;5037704;28;20112;-73
2022/10/31 03:26:06;;;;;;;108.15;52.80;;;11.10;99.90;;;;;;5048457;28;20079;-73
2022/10/31 03:28:44;;;;;;;97.88;50.03;;;11.00;99.90;;;;;;5048171;28;20558;-75
2022/10/31 03:31:16;;;;;;;75.30;48.10;;;11.10;99.90;;;;;;5052547;28;20380;-73
2022/10/31 03:33:43;;;;;;;199.93;64.70;;;11.20;99.90;;;;;;5053647;28;20083;-73
2022/10/31 03:36:11;;;;;;;122.22;54.78;;;11.10;99.90;;;;;;5051611;28;20432;-73
2022/10/31 03:38:39;;;;;;;88.15;54.38;;;11.20;99.90;;;;;;5040477;28;20448;-74
2022/10/31 03:41:10;;;;;;;82.43;53.03;;;11.20;99.90;;;;;;5052246;28;20063;-77
2022/10/31 03:43:40;;;;;;;87.35;52.85;;;11.30;99.90;;;;;;5053462;28;20060;-73
2022/10/31 03:46:06;;;;;;;97.93;57.50;;;11.30;99.90;;;;;;5052145;28;20033;-72
2022/10/31 03:48:33;;;;;;;108.15;57.63;;;11.40;99.90;;;;;;5041597;28;20439;-73
2022/10/31 03:51:06;;;;;;;112.50;56.25;;;11.50;99.90;;;;;;5051993;28;20042;-72
2022/10/31 03:53:51;;;;;;;105.15;57.25;;;11.50;99.90;;;;;;5051869;28;20115;-72
2022/10/31 03:56:27;;;;;;;140.13;53.38;;;11.50;99.90;;;;;;5041558;28;20017;-72
2022/10/31 03:59:36;;;;;;;92.70;53.10;;;11.40;99.90;;;;;;5036918;28;20139;-72
2022/10/31 04:02:07;;;;;;;121.88;53.95;;;11.40;99.90;;;;;;5051379;28;20041;-73
2022/10/31 04:04:35;;;;;;;86.78;50.78;;;11.40;99.90;;;;;;5051402;28;20162;-74
2022/10/31 04:07:03;;;;;;;112.78;53.17;;;11.40;99.90;;;;;;5051015;28;20025;-73
2022/10/31 04:09:32;;;;;;;92.45;49.75;;;11.50;99.90;;;;;;5040577;28;20017;-75
2022/10/31 04:12:00;;;;;;;83.10;47.33;;;11.50;99.90;;;;;;5052055;28;20025;-74
2022/10/31 04:14:54;;;;;;;88.93;46.00;;;11.40;99.90;;;;;;5051425;28;20079;-74
2022/10/31 04:17:23;;;;;;;72.97;44.17;;;11.40;99.90;;;;;;5034425;28;20025;-72
2022/10/31 04:19:49;;;;;;;80.50;44.80;;;11.40;99.90;;;;;;5033302;28;20426;-73
2022/10/31 04:22:15;;;;;;;84.35;44.90;;;11.40;99.90;;;;;;5047173;28;20037;-74
2022/10/31 04:24:41;;;;;;;63.65;40.50;;;11.40;99.90;;;;;;5046268;28;20027;-71
2022/10/31 04:27:11;;;;;;;71.50;43.95;;;11.40;99.90;;;;;;5046433;28;20095;-75
2022/10/31 04:29:37;;;;;;;153.65;55.60;;;11.40;99.90;;;;;;5029507;28;20128;-72
2022/10/31 04:32:03;;;;;;;86.85;45.17;;;11.20;99.90;;;;;;5031588;28;20543;-73
2022/10/31 04:34:29;;;;;;;113.57;45.70;;;11.00;99.90;;;;;;5033578;28;20037;-73
2022/10/31 04:36:55;;;;;;;67.30;42.22;;;11.00;99.90;;;;;;5047812;28;20041;-74
2022/10/31 04:39:20;;;;;;;183.65;59.75;;;11.00;99.90;;;;;;5049625;28;20083;-73
2022/10/31 04:41:56;;;;;;;109.28;48.95;;;11.00;99.90;;;;;;5031684;28;20041;-73
2022/10/31 04:44:24;;;;;;;125.00;48.50;;;11.00;99.90;;;;;;5040749;28;20023;-72
2022/10/31 04:46:51;;;;;;;180.15;63.50;;;11.00;99.90;;;;;;5048842;28;20481;-72
2022/10/31 04:49:17;;;;;;;79.68;44.33;;;10.80;99.90;;;;;;5034281;28;20075;-72
2022/10/31 04:51:43;;;;;;;74.05;42.38;;;10.90;99.90;;;;;;5025359;28;20083;-73
2022/10/31 04:54:09;;;;;;;63.85;41.20;;;11.00;99.90;;;;;;5048554;28;20025;-79
2022/10/31 04:56:50;;;;;;;135.27;50.45;;;11.00;99.90;;;;;;5049567;28;20023;-78
2022/10/31 04:59:20;;;;;;;79.20;41.20;;;10.80;99.90;;;;;;5046672;28;20022;-74
2022/10/31 05:01:51;;;;;;;219.75;66.22;;;10.80;99.90;;;;;;5041587;28;20099;-73
2022/10/31 05:04:21;;;;;;;318.60;83.57;;;10.60;99.90;;;;;;5050281;28;20025;-73
2022/10/31 05:06:47;;;;;;;110.20;49.40;;;10.60;99.90;;;;;;5050681;28;20036;-73
2022/10/31 05:09:13;;;;;;;93.60;42.20;;;10.80;99.90;;;;;;5049412;28;20078;-73
2022/10/31 05:11:39;;;;;;;124.50;48.97;;;10.70;99.90;;;;;;5053113;28;20124;-73
2022/10/31 05:14:26;;;;;;;154.55;55.90;;;10.70;99.90;;;;;;5050515;28;20132;-73
2022/10/31 05:17:15;;;;;;;129.38;49.67;;;10.60;99.90;;;;;;4993077;28;20477;-73
2022/10/31 05:20:19;;;;;;;269.40;72.40;;;10.70;99.90;;;;;;4954250;28;20067;-72
2022/10/31 05:23:08;;;;;;;67.70;39.97;;;10.70;99.90;;;;;;4944290;28;20047;-75
2022/10/31 05:25:34;;;;;;;145.50;53.95;;;10.70;99.90;;;;;;4955312;29;20118;-75
2022/10/31 05:28:03;;;;;;;165.75;53.97;;;10.70;99.90;;;;;;4951720;29;20031;-74
2022/10/31 05:30:31;;;;;;;100.65;39.92;;;10.60;99.90;;;;;;4955514;28;20023;-75
2022/10/31 05:32:57;;;;;;;118.53;44.33;;;10.70;99.90;;;;;;4955012;29;20028;-73
2022/10/31 05:35:43;;;;;;;58.72;38.35;;;10.60;99.90;;;;;;4860652;29;20536;-71
2022/10/31 05:38:21;;;;;;;81.57;43.45;;;10.70;99.90;;;;;;4861829;29;20036;-72
2022/10/31 05:40:47;;;;;;;67.40;40.90;;;10.80;99.90;;;;;;4870831;29;20078;-72
2022/10/31 05:43:14;;;;;;;66.93;38.75;;;10.90;99.90;;;;;;4863160;29;20038;-73
2022/10/31 05:45:40;;;;;;;94.28;38.92;;;10.90;99.90;;;;;;4845252;29;20471;-73
2022/10/31 05:48:13;;;;;;;333.95;94.05;;;10.90;99.90;;;;;;4860430;29;20037;-72
2022/10/31 05:50:58;;;;;;;372.42;114.00;;;10.90;99.90;;;;;;4860619;29;20053;-74
2022/10/31 05:53:24;;;;;;;447.15;152.25;;;10.80;99.90;;;;;;4870870;29;20046;-73
2022/10/31 05:55:50;;;;;;;423.05;126.60;;;10.90;99.90;;;;;;4935600;29;20023;-73
2022/10/31 05:58:19;;;;;;;102.75;54.08;;;10.90;99.90;;;;;;4917418;29;20036;-72
2022/10/31 06:00:52;;;;;;;;;;;10.80;99.90;;;;;;4919597;29;20478;-73
2022/10/31 06:03:18;;;;;;;50.47;32.20;;;10.80;99.90;;;;;;4934640;29;19985;-73
2022/10/31 06:05:46;;;;;;;252.32;73.28;;;10.90;99.90;;;;;;4919194;29;20398;-73
2022/10/31 06:08:13;;;;;;;105.47;52.13;;;10.80;99.90;;;;;;4919620;29;20059;-73
2022/10/31 06:10:40;;;;;;;54.38;35.80;;;10.80;99.90;;;;;;4919398;29;20034;-73
2022/10/31 06:13:06;;;;;;;94.38;41.30;;;10.80;99.90;;;;;;5005168;28;20074;-74
2022/10/31 06:15:58;;;;;;;65.28;29.77;;;10.70;99.90;;;;;;5045182;28;20048;-74
2022/10/31 06:18:30;;;;;;;50.85;31.67;;;10.60;99.90;;;;;;5034664;28;20029;-75
2022/10/31 06:20:56;;;;;;;54.47;30.45;;;10.80;99.90;;;;;;5047529;28;20106;-74
2022/10/31 06:23:22;;;;;;;48.17;31.58;;;10.80;99.90;;;;;;5049935;28;20040;-73
2022/10/31 06:25:53;;;;;;;45.25;29.65;;;10.90;99.90;;;;;;5033604;28;20071;-73
2022/10/31 06:28:19;;;;;;;46.50;30.70;;;10.90;99.90;;;;;;5044984;28;20463;-74
2022/10/31 06:31:05;;;;;;;46.47;28.35;;;10.90;99.90;;;;;;5027041;28;20040;-73
2022/10/31 06:33:32;;;;;;;87.95;39.40;;;10.80;99.90;;;;;;5049275;28;20033;-73
2022/10/31 06:36:01;;;;;;;44.10;26.02;;;10.70;99.90;;;;;;5048014;28;20670;-74
2022/10/31 06:38:28;;;;;;;42.95;29.23;;;10.80;99.90;;;;;;5039714;28;20103;-74
2022/10/31 06:40:54;;;;;;;42.67;28.65;;;10.80;99.90;;;;;;5050176;28;20028;-73
2022/10/31 06:43:22;;;;;;;51.38;29.33;;;10.80;99.90;;;;;;5038194;28;20537;-75
2022/10/31 06:45:51;;;;;;;44.05;28.25;;;10.70;99.90;;;;;;5042133;28;20364;-73
2022/10/31 06:48:33;;;;;;;43.35;27.40;;;10.80;99.90;;;;;;5032623;28;20117;-72
2022/10/31 06:51:18;;;;;;;42.00;27.33;;;10.80;99.90;;;;;;5045483;28;20037;-73
2022/10/31 06:53:44;;;;;;;47.75;31.30;;;11.00;99.90;;;;;;5046419;28;20032;-73
2022/10/31 06:56:11;;;;;;;63.67;29.77;;;11.00;99.90;;;;;;5032956;28;20116;-73
2022/10/31 06:58:43;;;;;;;66.47;33.27;;;11.00;99.90;;;;;;5032851;28;20029;-73
2022/10/31 07:01:10;;;;;;;54.50;29.75;;;10.90;99.90;;;;;;5033238;28;20312;-73
2022/10/31 07:03:36;;;;;;;49.97;27.40;;;10.90;99.90;;;;;;5036877;28;20140;-73
2022/10/31 07:06:02;;;;;;;47.58;28.58;;;10.80;99.90;;;;;;5042960;28;20028;-72
2022/10/31 07:08:28;;;;;;;43.55;28.95;;;10.70;99.90;;;;;;5047682;28;20032;-73
2022/10/31 07:10:56;;;;;;;42.75;28.67;;;10.90;99.90;;;;;;5045678;28;20121;-74
2022/10/31 07:13:26;;;;;;;38.30;27.95;;;11.00;99.90;;;;;;5042268;28;20057;-73
2022/10/31 07:16:03;;;;;;;39.67;26.90;;;11.10;99.90;;;;;;5025499;28;20033;-72
2022/10/31 07:18:31;;;;;;;38.65;28.02;;;11.20;99.90;;;;;;5044699;28;20071;-73
2022/10/31 07:20:56;;;;;;;43.85;27.10;;;11.30;99.90;;;;;;5032547;28;20041;-72
2022/10/31 07:23:22;;;;;;;39.17;26.65;;;11.30;99.90;;;;;;5045087;28;20128;-73
2022/10/31 07:26:09;;;;;;;39.15;26.20;;;11.40;99.90;;;;;;5053827;28;20533;-74
2022/10/31 07:28:40;;;;;;;38.40;26.83;;;11.40;99.90;;;;;;5033705;28;20079;-75
2022/10/31 07:31:07;;;;;;;35.17;26.42;;;11.50;99.90;;;;;;5049514;28;20025;-72
2022/10/31 07:33:33;;;;;;;43.33;27.42;;;11.50;99.90;;;;;;5043709;28;20536;-73
2022/10/31 07:36:17;;;;;;;36.90;26.05;;;11.30;99.90;;;;;;5022856;28;20040;-73
2022/10/31 07:38:45;;;;;;;39.30;27.17;;;11.50;99.90;;;;;;5033156;28;20391;-73
2022/10/31 07:41:10;;;;;;;45.08;24.90;;;11.50;99.90;;;;;;5045772;28;20028;-73
2022/10/31 07:43:41;;;;;;;34.58;25.73;;;11.40;99.90;;;;;;5044189;28;20041;-73
2022/10/31 07:46:16;;;;;;;48.63;26.92;;;11.50;99.90;;;;;;5033593;28;20033;-73
2022/10/31 07:49:00;;;;;;;41.15;27.27;;;11.60;99.90;;;;;;5041466;28;20040;-73
2022/10/31 07:51:44;;;;;;;37.65;26.95;;;11.80;99.90;;;;;;5034948;28;20036;-74
2022/10/31 07:54:29;;;;;;;38.47;25.20;;;11.80;99.90;;;;;;5042211;28;20116;-73
2022/10/31 07:56:55;;;;;;;38.38;26.73;;;11.90;99.90;;;;;;5046619;28;20112;-74
2022/10/31 07:59:20;;;;;;;34.92;25.63;;;12.00;99.90;;;;;;5048459;28;20103;-73
2022/10/31 08:01:47;;;;;;;35.03;25.52;;;12.10;99.90;;;;;;5049459;28;20036;-73
2022/10/31 08:04:31;;;;;;;37.85;27.10;;;12.20;99.90;;;;;;5041878;28;20026;-76
2022/10/31 08:07:16;;;;;;;34.05;23.52;;;12.20;99.90;;;;;;5027773;28;20448;-73
2022/10/31 08:09:48;;;;;;;;;;;12.20;99.90;;;;;;5042255;28;20087;-73
2022/10/31 08:12:24;;;;;;;39.92;25.35;;;12.20;99.90;;;;;;5027340;28;19921;-73
2022/10/31 08:14:53;;;;;;;34.65;24.50;;;12.20;99.90;;;;;;5027035;28;20033;-73
2022/10/31 08:17:19;;;;;;;35.65;24.90;;;12.30;99.90;;;;;;5047350;28;20029;-73
2022/10/31 08:20:05;;;;;;;40.50;26.38;;;12.30;99.90;;;;;;5034515;28;20033;-74
2022/10/31 08:22:33;;;;;;;34.50;24.27;;;12.40;99.90;;;;;;5046300;28;20037;-74
2022/10/31 08:25:01;;;;;;;36.40;24.65;;;12.50;99.90;;;;;;5041668;28;20103;-73
2022/10/31 08:27:27;;;;;;;42.80;30.00;;;12.50;99.90;;;;;;5033902;28;20502;-73
2022/10/31 08:29:55;;;;;;;48.85;33.75;;;12.60;99.90;;;;;;5029191;28;20076;-73
2022/10/31 08:32:22;;;;;;;51.03;37.33;;;12.10;99.90;;;;;;5035990;28;20116;-73
2022/10/31 08:34:57;;;;;;;56.75;40.00;;;11.90;99.90;;;;;;5042019;28;20569;-72
2022/10/31 08:37:35;;;;;;;60.83;43.72;;;12.20;99.90;;;;;;5029755;28;20034;-73
2022/10/31 08:40:03;;;;;;;63.83;47.13;;;12.20;99.90;;;;;;5029493;28;20033;-73
2022/10/31 08:42:33;;;;;;;56.45;41.58;;;11.90;99.90;;;;;;5031629;28;20466;-73
2022/10/31 08:45:01;;;;;;;54.17;38.88;;;11.80;99.90;;;;;;5039577;28;20044;-73
2022/10/31 08:47:27;;;;;;;61.47;41.38;;;11.70;99.90;;;;;;5039655;28;20021;-73
2022/10/31 08:49:54;;;;;;;47.20;31.98;;;11.90;99.90;;;;;;5026045;28;20026;-73
2022/10/31 08:52:24;;;;;;;53.10;37.17;;;11.90;99.90;;;;;;5039805;28;20116;-71
2022/10/31 08:54:51;;;;;;;59.22;41.88;;;11.90;99.90;;;;;;5033917;28;20025;-73
2022/10/31 08:57:35;;;;;;;55.45;36.28;;;12.20;99.90;;;;;;5033733;28;20049;-73
2022/10/31 09:00:02;;;;;;;66.43;44.38;;;12.40;99.90;;;;;;5039886;28;20013;-74
2022/10/31 09:02:47;;;;;;;55.38;39.50;;;12.60;99.90;;;;;;5036914;28;20040;-73
2022/10/31 09:05:13;;;;;;;55.13;35.38;;;12.80;99.90;;;;;;5032122;28;20114;-73
2022/10/31 09:07:39;;;;;;;44.40;31.80;;;12.90;99.90;;;;;;5032758;28;20083;-74
2022/10/31 09:10:05;;;;;;;50.95;36.65;;;12.60;99.90;;;;;;5038071;28;20440;-72
2022/10/31 09:12:34;;;;;;;49.58;35.78;;;12.40;99.90;;;;;;5050376;28;20052;-73
2022/10/31 09:15:19;;;;;;;42.78;32.05;;;12.40;99.90;;;;;;5033658;28;20043;-73
2022/10/31 09:18:06;;;;;;;50.53;30.15;;;12.20;99.90;;;;;;5031500;28;20387;-72
2022/10/31 09:21:04;;;;;;;47.88;32.45;;;12.50;99.90;;;;;;4992037;28;20361;-72
2022/10/31 09:23:31;;;;;;;41.10;30.63;;;12.60;99.90;;;;;;4993290;28;20041;-73
2022/10/31 09:26:00;;;;;;;43.15;31.83;;;12.80;99.90;;;;;;4989793;28;20033;-73
2022/10/31 09:28:35;;;;;;;47.25;31.73;;;13.00;99.90;;;;;;5005635;28;20500;-72
2022/10/31 09:31:12;;;;;;;43.63;29.33;;;13.00;99.90;;;;;;4986422;28;20061;-72
2022/10/31 09:33:58;;;;;;;39.88;29.23;;;12.90;99.90;;;;;;4988923;28;20039;-74
2022/10/31 09:36:38;;;;;;;46.75;33.03;;;13.10;99.90;;;;;;4990513;28;20070;-73
2022/10/31 09:39:07;;;;;;;49.65;31.20;;;13.10;99.90;;;;;;4989144;28;20488;-74
2022/10/31 09:42:08;;;;;;;42.10;30.73;;;13.20;99.90;;;;;;4989641;28;20539;-75
2022/10/31 09:44:58;;;;;;;42.10;30.40;;;13.20;99.90;;;;;;4989903;28;20139;-74
2022/10/31 09:47:39;;;;;;;41.83;30.65;;;13.40;99.90;;;;;;4988749;28;20112;-74
2022/10/31 09:50:33;;;;;;;40.15;30.25;;;13.60;99.90;;;;;;4984958;28;20045;-73
2022/10/31 09:53:19;;;;;;;56.80;41.55;;;13.70;99.90;;;;;;4976146;28;20070;-76
2022/10/31 09:55:49;;;;;;;51.20;37.20;;;13.80;99.90;;;;;;4973968;28;20589;-73
2022/10/31 09:58:28;;;;;;;44.40;31.15;;;13.70;99.90;;;;;;5007499;28;20026;-72
2022/10/31 10:00:58;;;;;;;53.28;35.67;;;13.70;99.90;;;;;;5033918;28;20033;-73
2022/10/31 10:03:34;;;;;;;42.45;29.60;;;13.90;99.90;;;;;;5008655;28;20502;-73
2022/10/31 10:06:13;;;;;;;41.35;30.25;;;13.80;99.90;;;;;;5011564;28;20030;-73
2022/10/31 10:09:00;;;;;;;46.13;30.52;;;13.70;99.90;;;;;;5011481;28;20029;-73
2022/10/31 10:12:03;;;;;;;44.47;31.58;;;13.80;99.90;;;;;;5019627;28;20045;-74
2022/10/31 10:14:32;;;;;;;;;;;13.80;99.90;;;;;;5044625;28;20061;-74
2022/10/31 10:17:06;;;;;;;41.55;30.15;;;14.00;99.90;;;;;;5041191;28;19974;-73
2022/10/31 10:19:54;;;;;;;42.53;31.15;;;14.20;99.90;;;;;;5052307;28;20075;-73
2022/10/31 10:22:40;;;;;;;40.95;29.60;;;14.10;99.90;;;;;;5053838;28;20620;-73
2022/10/31 10:25:39;;;;;;;46.10;31.33;;;14.30;99.90;;;;;;5041089;28;20079;-74
2022/10/31 10:28:22;;;;;;;46.08;32.63;;;14.40;99.90;;;;;;5038258;28;20069;-73
2022/10/31 10:30:50;;;;;;;46.78;32.08;;;14.30;99.90;;;;;;5035794;28;20018;-74
2022/10/31 10:33:40;;;;;;;43.95;31.77;;;14.10;99.90;;;;;;5054742;28;20021;-72
2022/10/31 10:36:28;;;;;;;40.95;30.23;;;14.20;99.90;;;;;;5053900;28;20083;-73
2022/10/31 10:39:29;;;;;;;44.72;31.55;;;14.30;99.90;;;;;;5043192;28;20025;-73
2022/10/31 10:47:41;;;;;;;45.53;33.85;;;14.60;99.90;;;;;;4985369;28;20038;-74
2022/10/31 10:50:18;;;;;;;44.50;32.30;;;14.30;99.90;;;;;;4988092;28;20496;-73
2022/10/31 10:52:50;;;;;;;53.35;38.60;;;14.40;99.90;;;;;;4992458;28;20046;-72
2022/10/31 10:55:32;;;;;;;46.87;34.40;;;14.50;99.90;;;;;;4992635;28;20058;-73
2022/10/31 10:58:09;;;;;;;50.03;33.07;;;14.30;99.90;;;;;;4990877;28;22894;-73
2022/10/31 11:00:43;;;;;;;46.33;33.85;;;14.40;99.90;;;;;;4973835;28;20122;-72
2022/10/31 11:03:10;;;;;;;46.60;34.35;;;14.20;99.90;;;;;;4966068;28;20452;-78
2022/10/31 11:05:47;;;;;;;45.33;33.83;;;14.60;99.90;;;;;;4992691;28;20034;-73
2022/10/31 11:08:27;;;;;;;45.10;33.28;;;14.80;99.90;;;;;;4990278;28;20026;-72
2022/10/31 11:11:16;;;;;;;53.78;34.70;;;14.80;99.90;;;;;;4971258;28;20500;-73
2022/10/31 11:13:47;;;;;;;50.70;38.47;;;14.90;99.90;;;;;;4968025;28;20051;-74
2022/10/31 11:16:26;;;;;;;51.40;37.90;;;14.60;99.90;;;;;;4967779;28;20517;-73
2022/10/31 11:18:53;;;;;;;52.95;37.45;;;14.80;99.90;;;;;;5003190;28;20081;-82
2022/10/31 11:21:29;;;;;;;56.15;40.72;;;15.10;99.90;;;;;;5035157;28;20040;-72
2022/10/31 11:24:18;;;;;;;52.38;38.78;;;15.30;99.90;;;;;;5042907;28;20032;-72
2022/10/31 11:26:46;;;;;;;56.20;40.25;;;15.50;99.90;;;;;;5040592;28;20033;-73
2022/10/31 11:29:22;;;;;;;62.63;48.55;;;15.40;99.90;;;;;;5048507;28;20387;-73
2022/10/31 11:31:52;;;;;;;60.47;45.80;;;15.50;99.90;;;;;;5043749;28;20021;-74
2022/10/31 11:34:45;;;;;;;68.22;51.15;;;15.50;99.90;;;;;;5053741;28;20028;-79
2022/10/31 11:37:18;;;;;;;67.25;52.85;;;15.50;99.90;;;;;;5030624;28;20078;-73
2022/10/31 11:39:53;;;;;;;60.22;47.00;;;15.70;99.90;;;;;;5049632;28;20075;-75
2022/10/31 11:42:27;;;;;;;61.72;46.63;;;15.70;99.90;;;;;;5044218;28;20049;-73
2022/10/31 11:44:54;;;;;;;64.63;50.33;;;15.60;99.90;;;;;;5030646;28;20548;-75
2022/10/31 11:47:29;;;;;;;64.50;48.45;;;15.80;99.90;;;;;;5012172;28;20026;-71
2022/10/31 11:49:56;;;;;;;64.03;49.53;;;15.90;99.90;;;;;;5026960;28;20036;-74
2022/10/31 11:52:24;;;;;;;58.38;46.83;;;15.70;99.90;;;;;;5032178;28;20117;-72
2022/10/31 11:54:55;;;;;;;57.00;44.05;;;15.80;99.90;;;;;;5024396;28;20519;-72
2022/10/31 11:57:29;;;;;;;62.45;45.47;;;15.90;99.90;;;;;;5023660;28;20040;-73
2022/10/31 11:59:58;;;;;;;53.78;39.35;;;16.00;99.90;;;;;;5040874;28;20044;-71
2022/10/31 12:02:24;;;;;;;55.45;40.95;;;16.20;99.90;;;;;;5027229;28;20069;-72
2022/10/31 12:05:07;;;;;;;64.70;48.75;;;16.30;99.90;;;;;;5028937;28;20385;-71
2022/10/31 12:07:33;;;;;;;59.08;45.47;;;16.30;99.90;;;;;;5036643;28;20543;-72
2022/10/31 12:09:59;;;;;;;55.30;40.72;;;16.40;99.90;;;;;;5028474;28;20026;-71
2022/10/31 12:12:52;;;;;;;50.95;35.75;;;16.60;99.90;;;;;;5031358;28;20262;-71
2022/10/31 12:15:21;;;;;;;58.15;42.05;;;16.60;99.90;;;;;;5036095;28;20029;-71
2022/10/31 12:17:55;;;;;;;53.40;40.83;;;16.60;99.90;;;;;;5033031;28;20022;-72
2022/10/31 12:20:58;;;;;;;52.55;39.35;;;16.70;99.90;;;;;;5026904;28;20024;-72
2022/10/31 12:23:33;;;;;;;49.95;36.53;;;16.80;99.90;;;;;;5028139;28;20053;-72
2022/10/31 12:26:25;;;;;;;48.67;37.75;;;16.90;99.90;;;;;;5035774;28;20018;-75
2022/10/31 12:29:13;;;;;;;49.47;33.10;;;16.90;99.90;;;;;;5027401;28;20080;-76
2022/10/31 12:32:07;;;;;;;44.20;32.80;;;16.90;99.90;;;;;;5024770;28;20030;-73
2022/10/31 12:34:54;;;;;;;59.50;41.55;;;16.90;99.90;;;;;;5020108;28;20507;-78
2022/10/31 12:37:48;;;;;;;52.08;36.15;;;17.00;99.90;;;;;;5027239;28;20176;-73
2022/10/31 12:40:29;;;;;;;38.10;29.70;;;17.10;99.90;;;;;;5020168;28;20068;-73
2022/10/31 12:43:15;;;;;;;46.20;34.75;;;17.10;99.90;;;;;;5031966;28;20041;-73
2022/10/31 12:45:57;;;;;;;54.55;40.25;;;17.10;99.90;;;;;;5028681;28;20030;-73
2022/10/31 12:48:41;;;;;;;47.80;34.93;;;17.10;99.90;;;;;;5022218;28;20034;-72
2022/10/31 12:54:52;;;;;;;41.22;31.70;;;17.20;99.90;;;;;;5037782;28;20036;-74
2022/10/31 12:57:33;;;;;;;45.33;31.33;;;17.20;99.90;;;;;;5042064;28;20045;-73
2022/10/31 13:00:11;;;;;;;59.38;49.88;;;17.30;99.90;;;;;;5048666;28;20024;-74
2022/10/31 13:02:55;;;;;;;41.22;32.28;;;17.30;99.90;;;;;;5048683;28;20403;-74
2022/10/31 13:05:32;;;;;;;41.55;30.88;;;17.40;99.90;;;;;;5039742;28;20471;-73